sensor_id;sensor_type;location;lat;lon;timestamp;pressure;altitude;pressure_sealevel;temperature
40199;BMP280;25906;43.536;26.068;2022-07-19T00:00:59;99336.00;;;17.94
40199;BMP280;25906;43.536;26.068;2022-07-19T00:03:45;99329.88;;;17.96
40199;BMP280;25906;43.536;26.068;2022-07-19T00:06:30;99330.50;;;17.94
40199;BMP280;25906;43.536;26.068;2022-07-19T00:09:16;99335.16;;;17.92
40199;BMP280;25906;43.536;26.068;2022-07-19T00:12:02;99336.50;;;17.91
40199;BMP280;25906;43.536;26.068;2022-07-19T00:14:48;99332.59;;;17.82
40199;BMP280;25906;43.536;26.068;2022-07-19T00:17:34;99327.41;;;17.75
40199;BMP280;25906;43.536;26.068;2022-07-19T00:20:21;99329.69;;;17.67
40199;BMP280;25906;43.536;26.068;2022-07-19T00:23:06;99330.53;;;17.45
40199;BMP280;25906;43.536;26.068;2022-07-19T00:25:52;99321.25;;;17.50
40199;BMP280;25906;43.536;26.068;2022-07-19T00:28:37;99322.75;;;17.53
40199;BMP280;25906;43.536;26.068;2022-07-19T00:31:24;99320.31;;;17.45
40199;BMP280;25906;43.536;26.068;2022-07-19T00:34:10;99323.03;;;17.45
40199;BMP280;25906;43.536;26.068;2022-07-19T00:36:55;99317.28;;;17.53
40199;BMP280;25906;43.536;26.068;2022-07-19T00:39:41;99310.28;;;17.50
40199;BMP280;25906;43.536;26.068;2022-07-19T00:42:27;99312.41;;;17.51
40199;BMP280;25906;43.536;26.068;2022-07-19T00:45:12;99311.25;;;17.43
40199;BMP280;25906;43.536;26.068;2022-07-19T00:47:59;99316.50;;;17.39
40199;BMP280;25906;43.536;26.068;2022-07-19T00:50:44;99307.69;;;17.40
40199;BMP280;25906;43.536;26.068;2022-07-19T00:53:31;99319.47;;;17.43
40199;BMP280;25906;43.536;26.068;2022-07-19T00:56:17;99311.88;;;17.41
40199;BMP280;25906;43.536;26.068;2022-07-19T00:59:03;99304.34;;;17.42
40199;BMP280;25906;43.536;26.068;2022-07-19T01:01:49;99310.31;;;17.38
40199;BMP280;25906;43.536;26.068;2022-07-19T01:04:35;99303.88;;;17.34
40199;BMP280;25906;43.536;26.068;2022-07-19T01:07:21;99310.00;;;17.32
40199;BMP280;25906;43.536;26.068;2022-07-19T01:10:08;99310.00;;;17.32
40199;BMP280;25906;43.536;26.068;2022-07-19T01:12:54;99303.69;;;17.30
40199;BMP280;25906;43.536;26.068;2022-07-19T01:15:41;99302.72;;;17.25
40199;BMP280;25906;43.536;26.068;2022-07-19T01:18:26;99301.22;;;17.23
40199;BMP280;25906;43.536;26.068;2022-07-19T01:21:18;99300.47;;;17.22
40199;BMP280;25906;43.536;26.068;2022-07-19T01:24:04;99294.69;;;17.16
40199;BMP280;25906;43.536;26.068;2022-07-19T01:26:50;99302.66;;;17.12
40199;BMP280;25906;43.536;26.068;2022-07-19T01:29:36;99295.06;;;17.11
40199;BMP280;25906;43.536;26.068;2022-07-19T01:32:22;99300.78;;;17.03
40199;BMP280;25906;43.536;26.068;2022-07-19T01:35:08;99297.28;;;16.78
40199;BMP280;25906;43.536;26.068;2022-07-19T01:37:54;99294.69;;;16.69
40199;BMP280;25906;43.536;26.068;2022-07-19T01:40:40;99290.88;;;16.74
40199;BMP280;25906;43.536;26.068;2022-07-19T01:43:25;99292.09;;;16.59
40199;BMP280;25906;43.536;26.068;2022-07-19T01:46:11;99300.78;;;16.67
40199;BMP280;25906;43.536;26.068;2022-07-19T01:48:56;99298.97;;;16.72
40199;BMP280;25906;43.536;26.068;2022-07-19T01:51:42;99301.22;;;16.75
40199;BMP280;25906;43.536;26.068;2022-07-19T01:54:27;99299.28;;;16.78
40199;BMP280;25906;43.536;26.068;2022-07-19T01:57:13;99303.13;;;16.84
40199;BMP280;25906;43.536;26.068;2022-07-19T01:59:59;99301.69;;;16.83
40199;BMP280;25906;43.536;26.068;2022-07-19T02:02:44;99311.19;;;16.82
40199;BMP280;25906;43.536;26.068;2022-07-19T02:05:30;99305.72;;;16.82
40199;BMP280;25906;43.536;26.068;2022-07-19T02:08:15;99300.50;;;16.75
40199;BMP280;25906;43.536;26.068;2022-07-19T02:11:01;99304.69;;;16.76
40199;BMP280;25906;43.536;26.068;2022-07-19T02:14:08;99301.44;;;16.79
40199;BMP280;25906;43.536;26.068;2022-07-19T02:16:54;99302.50;;;16.74
40199;BMP280;25906;43.536;26.068;2022-07-19T02:19:39;99307.66;;;16.68
40199;BMP280;25906;43.536;26.068;2022-07-19T02:22:25;99308.03;;;16.63
40199;BMP280;25906;43.536;26.068;2022-07-19T02:25:10;99308.63;;;16.50
40199;BMP280;25906;43.536;26.068;2022-07-19T02:27:56;99313.38;;;16.49
40199;BMP280;25906;43.536;26.068;2022-07-19T02:30:42;99299.47;;;16.45
40199;BMP280;25906;43.536;26.068;2022-07-19T02:33:27;99302.19;;;16.34
40199;BMP280;25906;43.536;26.068;2022-07-19T02:36:13;99305.56;;;16.33
40199;BMP280;25906;43.536;26.068;2022-07-19T02:38:58;99301.13;;;16.16
40199;BMP280;25906;43.536;26.068;2022-07-19T02:41:44;99298.97;;;16.15
40199;BMP280;25906;43.536;26.068;2022-07-19T02:44:30;99301.53;;;16.01
40199;BMP280;25906;43.536;26.068;2022-07-19T02:47:15;99295.53;;;16.03
40199;BMP280;25906;43.536;26.068;2022-07-19T02:50:01;99303.72;;;16.03
40199;BMP280;25906;43.536;26.068;2022-07-19T02:52:47;99300.50;;;16.06
40199;BMP280;25906;43.536;26.068;2022-07-19T02:55:33;99302.78;;;16.10
40199;BMP280;25906;43.536;26.068;2022-07-19T02:58:18;99309.31;;;16.16
40199;BMP280;25906;43.536;26.068;2022-07-19T03:01:04;99311.94;;;16.14
40199;BMP280;25906;43.536;26.068;2022-07-19T03:03:49;99310.97;;;16.10
40199;BMP280;25906;43.536;26.068;2022-07-19T03:06:35;99316.09;;;16.04
40199;BMP280;25906;43.536;26.068;2022-07-19T03:09:21;99308.59;;;16.04
40199;BMP280;25906;43.536;26.068;2022-07-19T03:12:07;99308.44;;;16.02
40199;BMP280;25906;43.536;26.068;2022-07-19T03:14:52;99308.44;;;16.02
40199;BMP280;25906;43.536;26.068;2022-07-19T03:17:38;99309.56;;;16.09
40199;BMP280;25906;43.536;26.068;2022-07-19T03:20:23;99313.22;;;16.13
40199;BMP280;25906;43.536;26.068;2022-07-19T03:23:09;99325.13;;;16.18
40199;BMP280;25906;43.536;26.068;2022-07-19T03:25:54;99316.13;;;16.27
40199;BMP280;25906;43.536;26.068;2022-07-19T03:28:40;99325.63;;;16.48
40199;BMP280;25906;43.536;26.068;2022-07-19T03:31:25;99320.47;;;16.88
40199;BMP280;25906;43.536;26.068;2022-07-19T03:34:11;99323.25;;;17.24
40199;BMP280;25906;43.536;26.068;2022-07-19T03:36:57;99326.00;;;17.63
40199;BMP280;25906;43.536;26.068;2022-07-19T03:39:42;99325.13;;;17.96
40199;BMP280;25906;43.536;26.068;2022-07-19T03:42:28;99330.50;;;18.32
40199;BMP280;25906;43.536;26.068;2022-07-19T03:45:13;99333.94;;;18.59
40199;BMP280;25906;43.536;26.068;2022-07-19T03:47:59;99331.34;;;18.90
40199;BMP280;25906;43.536;26.068;2022-07-19T03:50:45;99331.81;;;19.13
40199;BMP280;25906;43.536;26.068;2022-07-19T03:53:31;99342.19;;;19.43
40199;BMP280;25906;43.536;26.068;2022-07-19T03:56:16;99344.16;;;19.41
40199;BMP280;25906;43.536;26.068;2022-07-19T03:59:03;99344.25;;;19.58
40199;BMP280;25906;43.536;26.068;2022-07-19T04:01:50;99347.31;;;19.79
40199;BMP280;25906;43.536;26.068;2022-07-19T04:04:35;99342.03;;;19.83
40199;BMP280;25906;43.536;26.068;2022-07-19T04:07:21;99351.34;;;19.92
40199;BMP280;25906;43.536;26.068;2022-07-19T04:10:07;99358.34;;;19.51
40199;BMP280;25906;43.536;26.068;2022-07-19T04:12:52;99355.53;;;19.49
40199;BMP280;25906;43.536;26.068;2022-07-19T04:15:38;99362.66;;;19.40
40199;BMP280;25906;43.536;26.068;2022-07-19T04:18:24;99349.81;;;19.45
40199;BMP280;25906;43.536;26.068;2022-07-19T04:21:09;99351.81;;;19.58
40199;BMP280;25906;43.536;26.068;2022-07-19T04:23:55;99359.72;;;19.65
40199;BMP280;25906;43.536;26.068;2022-07-19T04:26:40;99355.47;;;19.93
40199;BMP280;25906;43.536;26.068;2022-07-19T04:29:26;99350.19;;;19.97
40199;BMP280;25906;43.536;26.068;2022-07-19T04:32:12;99359.56;;;20.07
40199;BMP280;25906;43.536;26.068;2022-07-19T04:34:57;99350.91;;;20.12
40199;BMP280;25906;43.536;26.068;2022-07-19T04:37:43;99351.06;;;20.16
40199;BMP280;25906;43.536;26.068;2022-07-19T04:40:28;99352.03;;;20.08
40199;BMP280;25906;43.536;26.068;2022-07-19T04:43:16;99347.06;;;20.04
40199;BMP280;25906;43.536;26.068;2022-07-19T04:46:02;99359.41;;;20.34
40199;BMP280;25906;43.536;26.068;2022-07-19T04:48:49;99356.69;;;20.66
40199;BMP280;25906;43.536;26.068;2022-07-19T04:51:34;99356.50;;;20.62
40199;BMP280;25906;43.536;26.068;2022-07-19T04:54:20;99355.75;;;20.77
40199;BMP280;25906;43.536;26.068;2022-07-19T04:57:06;99355.41;;;21.02
40199;BMP280;25906;43.536;26.068;2022-07-19T04:59:51;99353.94;;;21.16
40199;BMP280;25906;43.536;26.068;2022-07-19T05:02:37;99363.38;;;21.28
40199;BMP280;25906;43.536;26.068;2022-07-19T05:05:23;99365.28;;;21.24
40199;BMP280;25906;43.536;26.068;2022-07-19T05:08:09;99364.72;;;21.45
40199;BMP280;25906;43.536;26.068;2022-07-19T05:10:55;99369.91;;;21.37
40199;BMP280;25906;43.536;26.068;2022-07-19T05:13:41;99368.41;;;21.51
40199;BMP280;25906;43.536;26.068;2022-07-19T05:16:26;99364.53;;;21.75
40199;BMP280;25906;43.536;26.068;2022-07-19T05:19:12;99368.72;;;21.96
40199;BMP280;25906;43.536;26.068;2022-07-19T05:21:57;99367.75;;;22.06
40199;BMP280;25906;43.536;26.068;2022-07-19T05:24:43;99377.94;;;22.21
40199;BMP280;25906;43.536;26.068;2022-07-19T05:27:29;99374.19;;;22.32
40199;BMP280;25906;43.536;26.068;2022-07-19T05:30:14;99372.97;;;22.37
40199;BMP280;25906;43.536;26.068;2022-07-19T05:33:00;99380.84;;;22.44
40199;BMP280;25906;43.536;26.068;2022-07-19T05:35:46;99372.94;;;22.56
40199;BMP280;25906;43.536;26.068;2022-07-19T05:38:31;99378.56;;;22.58
40199;BMP280;25906;43.536;26.068;2022-07-19T05:41:19;99383.44;;;22.79
40199;BMP280;25906;43.536;26.068;2022-07-19T05:44:07;99377.47;;;23.08
40199;BMP280;25906;43.536;26.068;2022-07-19T05:46:52;99375.59;;;23.14
40199;BMP280;25906;43.536;26.068;2022-07-19T05:49:37;99369.69;;;23.25
40199;BMP280;25906;43.536;26.068;2022-07-19T05:52:23;99376.97;;;23.36
40199;BMP280;25906;43.536;26.068;2022-07-19T05:55:09;99374.34;;;23.19
40199;BMP280;25906;43.536;26.068;2022-07-19T05:57:54;99380.22;;;23.08
40199;BMP280;25906;43.536;26.068;2022-07-19T06:00:40;99371.56;;;23.40
40199;BMP280;25906;43.536;26.068;2022-07-19T06:03:47;99371.94;;;23.08
40199;BMP280;25906;43.536;26.068;2022-07-19T06:06:34;99374.72;;;23.10
40199;BMP280;25906;43.536;26.068;2022-07-19T06:09:19;99371.94;;;23.08
40199;BMP280;25906;43.536;26.068;2022-07-19T06:12:05;99369.94;;;23.10
40199;BMP280;25906;43.536;26.068;2022-07-19T06:14:51;99370.59;;;23.53
40199;BMP280;25906;43.536;26.068;2022-07-19T06:17:37;99371.06;;;23.94
40199;BMP280;25906;43.536;26.068;2022-07-19T06:20:22;99368.56;;;24.02
40199;BMP280;25906;43.536;26.068;2022-07-19T06:23:08;99368.56;;;24.27
40199;BMP280;25906;43.536;26.068;2022-07-19T06:25:53;99368.16;;;24.65
40199;BMP280;25906;43.536;26.068;2022-07-19T06:28:39;99370.72;;;24.85
40199;BMP280;25906;43.536;26.068;2022-07-19T06:31:25;99367.00;;;25.03
40199;BMP280;25906;43.536;26.068;2022-07-19T06:34:10;99371.03;;;24.69
40199;BMP280;25906;43.536;26.068;2022-07-19T06:36:56;99369.66;;;24.98
40199;BMP280;25906;43.536;26.068;2022-07-19T06:39:42;99368.03;;;25.18
40199;BMP280;25906;43.536;26.068;2022-07-19T06:42:27;99365.97;;;25.18
40199;BMP280;25906;43.536;26.068;2022-07-19T06:45:13;99363.00;;;25.10
40199;BMP280;25906;43.536;26.068;2022-07-19T06:47:58;99366.44;;;25.09
40199;BMP280;25906;43.536;26.068;2022-07-19T06:50:44;99366.47;;;25.40
40199;BMP280;25906;43.536;26.068;2022-07-19T06:53:30;99369.72;;;25.64
40199;BMP280;25906;43.536;26.068;2022-07-19T06:56:15;99369.66;;;24.98
40199;BMP280;25906;43.536;26.068;2022-07-19T06:59:01;99372.94;;;24.90
40199;BMP280;25906;43.536;26.068;2022-07-19T07:01:47;99367.44;;;25.21
40199;BMP280;25906;43.536;26.068;2022-07-19T07:04:32;99378.88;;;25.70
40199;BMP280;25906;43.536;26.068;2022-07-19T07:07:18;99375.84;;;25.58
40199;BMP280;25906;43.536;26.068;2022-07-19T07:10:04;99376.66;;;25.32
40199;BMP280;25906;43.536;26.068;2022-07-19T07:12:51;99383.19;;;25.13
40199;BMP280;25906;43.536;26.068;2022-07-19T07:15:37;99373.53;;;25.16
40199;BMP280;25906;43.536;26.068;2022-07-19T07:18:23;99384.91;;;25.28
40199;BMP280;25906;43.536;26.068;2022-07-19T07:21:09;99373.84;;;25.30
40199;BMP280;25906;43.536;26.068;2022-07-19T07:23:54;99380.25;;;25.69
40199;BMP280;25906;43.536;26.068;2022-07-19T07:26:40;99382.66;;;26.21
40199;BMP280;25906;43.536;26.068;2022-07-19T07:29:25;99381.09;;;26.10
40199;BMP280;25906;43.536;26.068;2022-07-19T07:32:11;99374.22;;;26.15
40199;BMP280;25906;43.536;26.068;2022-07-19T07:34:57;99389.66;;;25.87
40199;BMP280;25906;43.536;26.068;2022-07-19T07:37:42;99383.25;;;26.16
40199;BMP280;25906;43.536;26.068;2022-07-19T07:40:28;99385.19;;;25.73
40199;BMP280;25906;43.536;26.068;2022-07-19T07:43:13;99377.66;;;25.79
40199;BMP280;25906;43.536;26.068;2022-07-19T07:45:59;99379.25;;;25.88
40199;BMP280;25906;43.536;26.068;2022-07-19T07:48:44;99382.28;;;26.39
40199;BMP280;25906;43.536;26.068;2022-07-19T07:51:30;99378.22;;;26.07
40199;BMP280;25906;43.536;26.068;2022-07-19T07:54:15;99394.59;;;26.28
40199;BMP280;25906;43.536;26.068;2022-07-19T07:57:01;99380.06;;;26.70
40199;BMP280;25906;43.536;26.068;2022-07-19T07:59:47;99374.09;;;26.89
40199;BMP280;25906;43.536;26.068;2022-07-19T08:02:41;99387.69;;;26.72
40199;BMP280;25906;43.536;26.068;2022-07-19T08:05:27;99382.34;;;27.30
40199;BMP280;25906;43.536;26.068;2022-07-19T08:08:16;99393.06;;;27.53
40199;BMP280;25906;43.536;26.068;2022-07-19T08:11:02;99388.28;;;27.07
40199;BMP280;25906;43.536;26.068;2022-07-19T08:13:48;99378.47;;;27.04
40199;BMP280;25906;43.536;26.068;2022-07-19T08:16:34;99387.41;;;27.46
40199;BMP280;25906;43.536;26.068;2022-07-19T08:19:19;99380.00;;;26.68
40199;BMP280;25906;43.536;26.068;2022-07-19T08:22:05;99388.22;;;26.60
40199;BMP280;25906;43.536;26.068;2022-07-19T08:24:51;99377.41;;;26.80
40199;BMP280;25906;43.536;26.068;2022-07-19T08:27:36;99381.19;;;27.00
40199;BMP280;25906;43.536;26.068;2022-07-19T08:30:21;99379.88;;;27.03
40199;BMP280;25906;43.536;26.068;2022-07-19T08:33:07;99379.06;;;26.95
40199;BMP280;25906;43.536;26.068;2022-07-19T08:35:54;99373.97;;;26.81
40199;BMP280;25906;43.536;26.068;2022-07-19T08:38:39;99371.91;;;26.82
40199;BMP280;25906;43.536;26.068;2022-07-19T08:41:25;99369.28;;;27.45
40199;BMP280;25906;43.536;26.068;2022-07-19T08:44:12;99371.69;;;27.15
40199;BMP280;25906;43.536;26.068;2022-07-19T08:46:58;99378.81;;;27.28
40199;BMP280;25906;43.536;26.068;2022-07-19T08:49:45;99364.69;;;27.67
40199;BMP280;25906;43.536;26.068;2022-07-19T08:52:32;99375.72;;;28.17
40199;BMP280;25906;43.536;26.068;2022-07-19T08:55:18;99372.75;;;28.02
40199;BMP280;25906;43.536;26.068;2022-07-19T08:58:04;99372.81;;;26.96
40199;BMP280;25906;43.536;26.068;2022-07-19T09:00:52;99370.03;;;26.98
40199;BMP280;25906;43.536;26.068;2022-07-19T09:03:37;99371.31;;;26.89
40199;BMP280;25906;43.536;26.068;2022-07-19T09:06:53;99365.41;;;27.14
40199;BMP280;25906;43.536;26.068;2022-07-19T09:09:39;99364.09;;;27.17
40199;BMP280;25906;43.536;26.068;2022-07-19T09:12:25;99365.47;;;27.71
40199;BMP280;25906;43.536;26.068;2022-07-19T09:15:11;99367.28;;;28.14
40199;BMP280;25906;43.536;26.068;2022-07-19T09:18:05;99356.47;;;28.49
40199;BMP280;25906;43.536;26.068;2022-07-19T09:20:56;99366.16;;;28.42
40199;BMP280;25906;43.536;26.068;2022-07-19T09:23:42;99357.50;;;28.09
40199;BMP280;25906;43.536;26.068;2022-07-19T09:26:27;99352.25;;;27.72
40199;BMP280;25906;43.536;26.068;2022-07-19T09:29:17;99358.47;;;27.66
40199;BMP280;25906;43.536;26.068;2022-07-19T09:32:10;99347.91;;;27.57
40199;BMP280;25906;43.536;26.068;2022-07-19T09:34:57;99347.13;;;28.17
40199;BMP280;25906;43.536;26.068;2022-07-19T09:37:43;99348.00;;;27.67
40199;BMP280;25906;43.536;26.068;2022-07-19T09:40:30;99350.75;;;27.63
40199;BMP280;25906;43.536;26.068;2022-07-19T09:43:17;99341.84;;;27.76
40199;BMP280;25906;43.536;26.068;2022-07-19T09:46:04;99349.09;;;27.42
40199;BMP280;25906;43.536;26.068;2022-07-19T09:48:50;99357.63;;;27.56
40199;BMP280;25906;43.536;26.068;2022-07-19T09:51:37;99344.44;;;28.27
40199;BMP280;25906;43.536;26.068;2022-07-19T09:54:25;99339.72;;;28.45
40199;BMP280;25906;43.536;26.068;2022-07-19T09:57:12;99341.22;;;28.56
40199;BMP280;25906;43.536;26.068;2022-07-19T09:59:59;99345.56;;;27.96
40199;BMP280;25906;43.536;26.068;2022-07-19T10:02:54;99337.00;;;26.73
40199;BMP280;25906;43.536;26.068;2022-07-19T10:05:40;99335.31;;;26.99
40199;BMP280;25906;43.536;26.068;2022-07-19T10:08:26;99325.47;;;27.43
40199;BMP280;25906;43.536;26.068;2022-07-19T10:11:13;99335.63;;;27.78
40199;BMP280;25906;43.536;26.068;2022-07-19T10:13:59;99334.81;;;27.69
40199;BMP280;25906;43.536;26.068;2022-07-19T10:22:22;99320.75;;;27.57
40199;BMP280;25906;43.536;26.068;2022-07-19T10:25:13;99321.72;;;27.83
40199;BMP280;25906;43.536;26.068;2022-07-19T10:27:59;99326.28;;;28.20
40199;BMP280;25906;43.536;26.068;2022-07-19T10:30:45;99312.47;;;28.36
40199;BMP280;25906;43.536;26.068;2022-07-19T10:33:33;99310.31;;;28.30
40199;BMP280;25906;43.536;26.068;2022-07-19T10:36:46;99306.44;;;28.71
40199;BMP280;25906;43.536;26.068;2022-07-19T10:39:37;99299.53;;;28.80
40199;BMP280;25906;43.536;26.068;2022-07-19T10:42:23;99288.81;;;28.41
40199;BMP280;25906;43.536;26.068;2022-07-19T10:45:09;99297.34;;;27.80
40199;BMP280;25906;43.536;26.068;2022-07-19T10:48:05;99289.22;;;27.37
40199;BMP280;25906;43.536;26.068;2022-07-19T10:50:54;99287.84;;;28.05
40199;BMP280;25906;43.536;26.068;2022-07-19T10:56:29;99285.69;;;27.97
40199;BMP280;25906;43.536;26.068;2022-07-19T10:59:30;99289.44;;;27.55
40199;BMP280;25906;43.536;26.068;2022-07-19T11:02:23;99281.34;;;27.83
40199;BMP280;25906;43.536;26.068;2022-07-19T11:05:27;99265.97;;;27.74
40199;BMP280;25906;43.536;26.068;2022-07-19T11:08:13;99276.66;;;28.03
40199;BMP280;25906;43.536;26.068;2022-07-19T11:11:06;99270.66;;;28.32
40199;BMP280;25906;43.536;26.068;2022-07-19T11:13:54;99270.63;;;28.30
40199;BMP280;25906;43.536;26.068;2022-07-19T11:16:40;99267.09;;;28.25
40199;BMP280;25906;43.536;26.068;2022-07-19T11:19:26;99258.34;;;27.78
40199;BMP280;25906;43.536;26.068;2022-07-19T11:22:12;99252.91;;;27.92
40199;BMP280;25906;43.536;26.068;2022-07-19T11:24:58;99254.16;;;27.79
40199;BMP280;25906;43.536;26.068;2022-07-19T11:27:46;99255.69;;;27.92
40199;BMP280;25906;43.536;26.068;2022-07-19T11:30:33;99260.63;;;27.97
40199;BMP280;25906;43.536;26.068;2022-07-19T11:33:20;99248.91;;;28.15
40199;BMP280;25906;43.536;26.068;2022-07-19T11:36:06;99241.53;;;28.54
40199;BMP280;25906;43.536;26.068;2022-07-19T11:38:53;99245.06;;;28.63
40199;BMP280;25906;43.536;26.068;2022-07-19T11:41:43;99234.75;;;28.99
40199;BMP280;25906;43.536;26.068;2022-07-19T11:44:29;99234.66;;;28.69
40199;BMP280;25906;43.536;26.068;2022-07-19T11:47:14;99232.63;;;28.82
40199;BMP280;25906;43.536;26.068;2022-07-19T11:50:06;99230.47;;;28.72
40199;BMP280;25906;43.536;26.068;2022-07-19T11:52:55;99237.31;;;28.48
40199;BMP280;25906;43.536;26.068;2022-07-19T11:55:42;99223.81;;;28.11
40199;BMP280;25906;43.536;26.068;2022-07-19T11:58:28;99219.75;;;28.25
40199;BMP280;25906;43.536;26.068;2022-07-19T12:01:14;99225.22;;;28.14
40199;BMP280;25906;43.536;26.068;2022-07-19T12:04:04;99234.19;;;28.02
40199;BMP280;25906;43.536;26.068;2022-07-19T12:06:50;99223.44;;;28.59
40199;BMP280;25906;43.536;26.068;2022-07-19T12:09:39;99233.16;;;28.56
40199;BMP280;25906;43.536;26.068;2022-07-19T12:12:25;99229.69;;;28.56
40199;BMP280;25906;43.536;26.068;2022-07-19T12:15:11;99219.41;;;28.92
40199;BMP280;25906;43.536;26.068;2022-07-19T12:17:57;99221.44;;;28.84
40199;BMP280;25906;43.536;26.068;2022-07-19T12:20:44;99227.56;;;28.56
40199;BMP280;25906;43.536;26.068;2022-07-19T12:23:30;99219.88;;;28.45
40199;BMP280;25906;43.536;26.068;2022-07-19T12:26:16;99214.06;;;28.14
40199;BMP280;25906;43.536;26.068;2022-07-19T12:29:19;99212.19;;;28.44
40199;BMP280;25906;43.536;26.068;2022-07-19T12:32:11;99194.94;;;28.77
40199;BMP280;25906;43.536;26.068;2022-07-19T12:35:08;99203.91;;;28.53
40199;BMP280;25906;43.536;26.068;2022-07-19T12:38:03;99194.91;;;28.69
40199;BMP280;25906;43.536;26.068;2022-07-19T12:40:49;99192.84;;;28.81
40199;BMP280;25906;43.536;26.068;2022-07-19T12:43:35;99194.94;;;28.79
40199;BMP280;25906;43.536;26.068;2022-07-19T12:46:21;99195.44;;;28.32
40199;BMP280;25906;43.536;26.068;2022-07-19T12:49:09;99203.97;;;28.67
40199;BMP280;25906;43.536;26.068;2022-07-19T12:51:58;99188.50;;;28.39
40199;BMP280;25906;43.536;26.068;2022-07-19T12:54:44;99184.34;;;28.48
40199;BMP280;25906;43.536;26.068;2022-07-19T12:57:29;99190.06;;;28.81
40199;BMP280;25906;43.536;26.068;2022-07-19T13:00:15;99178.06;;;28.41
40199;BMP280;25906;43.536;26.068;2022-07-19T13:03:02;99187.06;;;28.32
40199;BMP280;25906;43.536;26.068;2022-07-19T13:05:48;99175.78;;;28.16
40199;BMP280;25906;43.536;26.068;2022-07-19T13:08:33;99187.19;;;28.55
40199;BMP280;25906;43.536;26.068;2022-07-19T13:11:19;99176.81;;;28.74
40199;BMP280;25906;43.536;26.068;2022-07-19T13:14:05;99177.31;;;28.33
40199;BMP280;25906;43.536;26.068;2022-07-19T13:16:55;99169.03;;;28.51
40199;BMP280;25906;43.536;26.068;2022-07-19T13:19:41;99181.41;;;28.22
40199;BMP280;25906;43.536;26.068;2022-07-19T13:22:26;99168.88;;;28.23
40199;BMP280;25906;43.536;26.068;2022-07-19T13:25:12;99164.69;;;28.20
40199;BMP280;25906;43.536;26.068;2022-07-19T13:27:57;99172.03;;;27.78
40199;BMP280;25906;43.536;26.068;2022-07-19T13:30:44;99165.91;;;27.97
40199;BMP280;25906;43.536;26.068;2022-07-19T13:33:30;99165.22;;;27.95
40199;BMP280;25906;43.536;26.068;2022-07-19T13:36:15;99165.19;;;27.91
40199;BMP280;25906;43.536;26.068;2022-07-19T13:39:07;99165.84;;;27.89
40199;BMP280;25906;43.536;26.068;2022-07-19T13:41:53;99162.25;;;27.73
40199;BMP280;25906;43.536;26.068;2022-07-19T13:44:38;99160.19;;;27.76
40199;BMP280;25906;43.536;26.068;2022-07-19T13:47:24;99156.28;;;28.14
40199;BMP280;25906;43.536;26.068;2022-07-19T13:50:10;99151.44;;;28.24
40199;BMP280;25906;43.536;26.068;2022-07-19T13:52:57;99143.91;;;28.47
40199;BMP280;25906;43.536;26.068;2022-07-19T13:55:43;99150.28;;;28.67
40199;BMP280;25906;43.536;26.068;2022-07-19T13:58:28;99150.72;;;28.14
40199;BMP280;25906;43.536;26.068;2022-07-19T14:01:14;99141.50;;;27.92
40199;BMP280;25906;43.536;26.068;2022-07-19T14:03:59;99147.75;;;27.88
40199;BMP280;25906;43.536;26.068;2022-07-19T14:06:45;99152.69;;;27.94
40199;BMP280;25906;43.536;26.068;2022-07-19T14:09:31;99145.84;;;28.17
40199;BMP280;25906;43.536;26.068;2022-07-19T14:12:16;99141.66;;;28.12
40199;BMP280;25906;43.536;26.068;2022-07-19T14:15:02;99133.69;;;27.71
40199;BMP280;25906;43.536;26.068;2022-07-19T14:17:48;99142.19;;;27.86
40199;BMP280;25906;43.536;26.068;2022-07-19T14:20:33;99138.72;;;27.88
40199;BMP280;25906;43.536;26.068;2022-07-19T14:23:19;99136.53;;;27.79
40199;BMP280;25906;43.536;26.068;2022-07-19T14:26:04;99135.28;;;27.95
40199;BMP280;25906;43.536;26.068;2022-07-19T14:28:50;99131.91;;;28.15
40199;BMP280;25906;43.536;26.068;2022-07-19T14:31:35;99134.66;;;28.11
40199;BMP280;25906;43.536;26.068;2022-07-19T14:34:21;99131.19;;;28.12
40199;BMP280;25906;43.536;26.068;2022-07-19T14:37:07;99127.13;;;28.29
40199;BMP280;25906;43.536;26.068;2022-07-19T14:39:52;99117.38;;;28.26
40199;BMP280;25906;43.536;26.068;2022-07-19T14:42:38;99116.63;;;28.21
40199;BMP280;25906;43.536;26.068;2022-07-19T14:45:24;99118.03;;;28.24
40199;BMP280;25906;43.536;26.068;2022-07-19T14:48:09;99120.63;;;27.93
40199;BMP280;25906;43.536;26.068;2022-07-19T14:50:56;99120.66;;;27.97
40199;BMP280;25906;43.536;26.068;2022-07-19T14:53:41;99111.69;;;28.12
40199;BMP280;25906;43.536;26.068;2022-07-19T14:56:27;99111.53;;;27.84
40199;BMP280;25906;43.536;26.068;2022-07-19T14:59:13;99113.56;;;27.78
40199;BMP280;25906;43.536;26.068;2022-07-19T15:01:59;99112.88;;;27.76
40199;BMP280;25906;43.536;26.068;2022-07-19T15:04:45;99110.72;;;27.66
40199;BMP280;25906;43.536;26.068;2022-07-19T15:07:30;99109.25;;;27.61
40199;BMP280;25906;43.536;26.068;2022-07-19T15:10:16;99107.94;;;27.66
40199;BMP280;25906;43.536;26.068;2022-07-19T15:13:01;99102.25;;;27.56
40199;BMP280;25906;43.536;26.068;2022-07-19T15:15:47;99110.44;;;27.35
40199;BMP280;25906;43.536;26.068;2022-07-19T15:18:32;99114.69;;;27.42
40199;BMP280;25906;43.536;26.068;2022-07-19T15:21:18;99114.06;;;27.51
40199;BMP280;25906;43.536;26.068;2022-07-19T15:24:04;99109.19;;;27.51
40199;BMP280;25906;43.536;26.068;2022-07-19T15:26:50;99107.63;;;27.31
40199;BMP280;25906;43.536;26.068;2022-07-19T15:29:35;99118.78;;;27.35
40199;BMP280;25906;43.536;26.068;2022-07-19T15:32:21;99103.28;;;27.14
40199;BMP280;25906;43.536;26.068;2022-07-19T15:35:06;99104.06;;;27.22
40199;BMP280;25906;43.536;26.068;2022-07-19T15:37:52;99106.16;;;27.24
40199;BMP280;25906;43.536;26.068;2022-07-19T15:40:38;99104.75;;;27.21
40199;BMP280;25906;43.536;26.068;2022-07-19T15:43:23;99098.97;;;27.01
40199;BMP280;25906;43.536;26.068;2022-07-19T15:46:10;99099.41;;;26.76
40199;BMP280;25906;43.536;26.068;2022-07-19T15:48:57;99100.13;;;26.78
40199;BMP280;25906;43.536;26.068;2022-07-19T15:51:43;99102.94;;;26.82
40199;BMP280;25906;43.536;26.068;2022-07-19T15:54:29;99106.38;;;26.79